sensor_id;sensor_type;location;lat;lon;timestamp;temperature;humidity
11925;DHT22;6022;48.768;18.608;2023-11-22T00:01:12;6.90;99.90
11925;DHT22;6022;48.768;18.608;2023-11-22T00:03:40;6.40;99.90
11925;DHT22;6022;48.768;18.608;2023-11-22T00:06:10;6.70;99.90
11925;DHT22;6022;48.768;18.608;2023-11-22T00:08:42;5.70;99.90
11925;DHT22;6022;48.768;18.608;2023-11-22T00:11:13;6.60;99.90
11925;DHT22;6022;48.768;18.608;2023-11-22T00:13:42;7.00;99.90
11925;DHT22;6022;48.768;18.608;2023-11-22T00:16:15;5.90;99.90
11925;DHT22;6022;48.768;18.608;2023-11-22T00:18:44;5.80;99.90
11925;DHT22;6022;48.768;18.608;2023-11-22T00:21:15;6.70;99.90
11925;DHT22;6022;48.768;18.608;2023-11-22T00:23:44;7.10;99.90
11925;DHT22;6022;48.768;18.608;2023-11-22T00:26:14;7.00;99.90
11925;DHT22;6022;48.768;18.608;2023-11-22T00:28:43;6.70;99.90
11925;DHT22;6022;48.768;18.608;2023-11-22T00:31:12;6.50;99.90
11925;DHT22;6022;48.768;18.608;2023-11-22T00:33:49;6.00;99.90
11925;DHT22;6022;48.768;18.608;2023-11-22T00:36:19;6.20;99.90
11925;DHT22;6022;48.768;18.608;2023-11-22T00:38:48;6.80;99.90
11925;DHT22;6022;48.768;18.608;2023-11-22T00:41:17;6.40;99.90
11925;DHT22;6022;48.768;18.608;2023-11-22T00:43:49;6.60;99.90
11925;DHT22;6022;48.768;18.608;2023-11-22T00:46:18;5.70;99.90
11925;DHT22;6022;48.768;18.608;2023-11-22T00:48:48;5.50;99.90
11925;DHT22;6022;48.768;18.608;2023-11-22T00:51:18;6.60;99.90
11925;DHT22;6022;48.768;18.608;2023-11-22T00:53:47;6.80;99.90
11925;DHT22;6022;48.768;18.608;2023-11-22T00:56:19;6.30;99.90
11925;DHT22;6022;48.768;18.608;2023-11-22T00:58:53;6.10;99.90
11925;DHT22;6022;48.768;18.608;2023-11-22T01:01:23;6.30;99.90
11925;DHT22;6022;48.768;18.608;2023-11-22T01:03:51;7.10;99.90
11925;DHT22;6022;48.768;18.608;2023-11-22T01:06:22;6.80;99.90
11925;DHT22;6022;48.768;18.608;2023-11-22T01:08:51;6.40;99.90
11925;DHT22;6022;48.768;18.608;2023-11-22T01:11:19;7.00;99.90
11925;DHT22;6022;48.768;18.608;2023-11-22T01:13:52;6.40;99.90
11925;DHT22;6022;48.768;18.608;2023-11-22T01:16:23;6.40;99.90
11925;DHT22;6022;48.768;18.608;2023-11-22T01:18:53;7.00;99.90
11925;DHT22;6022;48.768;18.608;2023-11-22T01:21:22;6.30;99.90
11925;DHT22;6022;48.768;18.608;2023-11-22T01:23:56;6.50;99.90
11925;DHT22;6022;48.768;18.608;2023-11-22T01:26:34;6.70;99.90
11925;DHT22;6022;48.768;18.608;2023-11-22T01:29:06;6.20;99.90
11925;DHT22;6022;48.768;18.608;2023-11-22T01:31:36;6.70;99.90
11925;DHT22;6022;48.768;18.608;2023-11-22T01:34:11;6.50;99.90
11925;DHT22;6022;48.768;18.608;2023-11-22T01:36:44;6.30;99.90
11925;DHT22;6022;48.768;18.608;2023-11-22T01:39:17;6.30;99.90
11925;DHT22;6022;48.768;18.608;2023-11-22T01:41:52;6.40;99.90
11925;DHT22;6022;48.768;18.608;2023-11-22T01:44:24;6.30;99.90
11925;DHT22;6022;48.768;18.608;2023-11-22T01:46:55;6.30;99.90
11925;DHT22;6022;48.768;18.608;2023-11-22T01:49:27;6.30;99.90
11925;DHT22;6022;48.768;18.608;2023-11-22T01:52:03;6.30;99.90
11925;DHT22;6022;48.768;18.608;2023-11-22T01:54:37;6.20;99.90
11925;DHT22;6022;48.768;18.608;2023-11-22T01:57:10;6.30;99.90
11925;DHT22;6022;48.768;18.608;2023-11-22T01:59:42;6.90;99.90
11925;DHT22;6022;48.768;18.608;2023-11-22T02:02:20;6.70;99.90
11925;DHT22;6022;48.768;18.608;2023-11-22T02:05:07;6.40;99.90
11925;DHT22;6022;48.768;18.608;2023-11-22T02:07:43;5.60;99.90
11925;DHT22;6022;48.768;18.608;2023-11-22T02:10:14;6.80;99.90
11925;DHT22;6022;48.768;18.608;2023-11-22T02:12:52;6.80;99.90
11925;DHT22;6022;48.768;18.608;2023-11-22T02:15:23;6.50;99.90
11925;DHT22;6022;48.768;18.608;2023-11-22T02:17:53;6.80;99.90
11925;DHT22;6022;48.768;18.608;2023-11-22T02:20:38;6.60;99.90
11925;DHT22;6022;48.768;18.608;2023-11-22T02:23:12;6.30;99.90
11925;DHT22;6022;48.768;18.608;2023-11-22T02:25:41;6.30;99.90
11925;DHT22;6022;48.768;18.608;2023-11-22T02:28:13;6.30;99.90
11925;DHT22;6022;48.768;18.608;2023-11-22T02:31:17;6.50;99.90
11925;DHT22;6022;48.768;18.608;2023-11-22T02:34:20;6.10;99.90
11925;DHT22;6022;48.768;18.608;2023-11-22T02:37:39;6.30;99.90
11925;DHT22;6022;48.768;18.608;2023-11-22T02:40:37;6.00;99.90
11925;DHT22;6022;48.768;18.608;2023-11-22T02:44:05;6.70;99.90
11925;DHT22;6022;48.768;18.608;2023-11-22T02:47:03;5.70;99.90
11925;DHT22;6022;48.768;18.608;2023-11-22T02:49:50;5.60;99.90
11925;DHT22;6022;48.768;18.608;2023-11-22T02:52:41;6.10;99.90
11925;DHT22;6022;48.768;18.608;2023-11-22T02:55:32;5.70;99.90
11925;DHT22;6022;48.768;18.608;2023-11-22T02:58:34;4.70;99.90
11925;DHT22;6022;48.768;18.608;2023-11-22T03:01:15;5.80;99.90
11925;DHT22;6022;48.768;18.608;2023-11-22T03:04:10;5.70;99.90
11925;DHT22;6022;48.768;18.608;2023-11-22T03:06:55;5.80;99.90
11925;DHT22;6022;48.768;18.608;2023-11-22T03:09:28;6.50;99.90
11925;DHT22;6022;48.768;18.608;2023-11-22T03:12:03;5.70;99.90
11925;DHT22;6022;48.768;18.608;2023-11-22T03:14:41;5.50;99.90
11925;DHT22;6022;48.768;18.608;2023-11-22T03:17:22;5.30;99.90
11925;DHT22;6022;48.768;18.608;2023-11-22T03:19:51;5.90;99.90
11925;DHT22;6022;48.768;18.608;2023-11-22T03:22:41;5.90;99.90
11925;DHT22;6022;48.768;18.608;2023-11-22T03:25:13;5.50;99.90
11925;DHT22;6022;48.768;18.608;2023-11-22T03:27:44;5.60;99.90
11925;DHT22;6022;48.768;18.608;2023-11-22T03:30:18;5.70;99.90
11925;DHT22;6022;48.768;18.608;2023-11-22T03:32:48;5.90;99.90
11925;DHT22;6022;48.768;18.608;2023-11-22T03:38:05;5.30;99.90
11925;DHT22;6022;48.768;18.608;2023-11-22T03:40:48;5.30;99.90
11925;DHT22;6022;48.768;18.608;2023-11-22T03:43:29;5.40;99.90
11925;DHT22;6022;48.768;18.608;2023-11-22T03:46:01;5.30;99.90
11925;DHT22;6022;48.768;18.608;2023-11-22T03:48:43;4.90;99.90
11925;DHT22;6022;48.768;18.608;2023-11-22T03:51:15;5.10;99.90
11925;DHT22;6022;48.768;18.608;2023-11-22T03:53:44;5.40;99.90
11925;DHT22;6022;48.768;18.608;2023-11-22T03:56:12;5.30;99.90
11925;DHT22;6022;48.768;18.608;2023-11-22T03:58:45;4.90;99.90
11925;DHT22;6022;48.768;18.608;2023-11-22T04:01:17;5.10;99.90
11925;DHT22;6022;48.768;18.608;2023-11-22T04:03:52;5.20;99.90
11925;DHT22;6022;48.768;18.608;2023-11-22T04:06:28;4.80;99.90
11925;DHT22;6022;48.768;18.608;2023-11-22T04:09:01;4.80;99.90
11925;DHT22;6022;48.768;18.608;2023-11-22T04:11:30;5.20;99.90
11925;DHT22;6022;48.768;18.608;2023-11-22T04:14:01;4.80;99.90
11925;DHT22;6022;48.768;18.608;2023-11-22T04:16:30;4.80;99.90
11925;DHT22;6022;48.768;18.608;2023-11-22T04:18:58;5.60;99.90
11925;DHT22;6022;48.768;18.608;2023-11-22T04:21:29;4.60;99.90
11925;DHT22;6022;48.768;18.608;2023-11-22T04:23:58;4.60;99.90
11925;DHT22;6022;48.768;18.608;2023-11-22T04:26:27;4.80;99.90
11925;DHT22;6022;48.768;18.608;2023-11-22T04:28:58;4.90;99.90
11925;DHT22;6022;48.768;18.608;2023-11-22T04:31:31;4.70;99.90
11925;DHT22;6022;48.768;18.608;2023-11-22T04:34:04;4.10;99.90
11925;DHT22;6022;48.768;18.608;2023-11-22T04:37:05;4.90;99.90
11925;DHT22;6022;48.768;18.608;2023-11-22T04:39:40;4.80;99.90
11925;DHT22;6022;48.768;18.608;2023-11-22T04:42:20;5.20;99.90
11925;DHT22;6022;48.768;18.608;2023-11-22T04:44:53;4.70;99.90
11925;DHT22;6022;48.768;18.608;2023-11-22T04:50:01;4.70;99.90
11925;DHT22;6022;48.768;18.608;2023-11-22T04:55:03;4.50;99.90
11925;DHT22;6022;48.768;18.608;2023-11-22T04:57:47;4.70;99.90
11925;DHT22;6022;48.768;18.608;2023-11-22T05:00:26;4.70;99.90
11925;DHT22;6022;48.768;18.608;2023-11-22T05:03:01;4.80;99.90
11925;DHT22;6022;48.768;18.608;2023-11-22T05:05:45;4.70;99.90
11925;DHT22;6022;48.768;18.608;2023-11-22T05:14:39;5.10;99.90
11925;DHT22;6022;48.768;18.608;2023-11-22T05:17:40;4.60;99.90
11925;DHT22;6022;48.768;18.608;2023-11-22T05:20:42;4.80;99.90
11925;DHT22;6022;48.768;18.608;2023-11-22T05:23:40;4.70;99.90
11925;DHT22;6022;48.768;18.608;2023-11-22T05:26:34;5.30;99.90
11925;DHT22;6022;48.768;18.608;2023-11-22T05:29:06;4.80;99.90
11925;DHT22;6022;48.768;18.608;2023-11-22T05:31:36;4.60;99.90
11925;DHT22;6022;48.768;18.608;2023-11-22T05:34:09;4.70;99.90
11925;DHT22;6022;48.768;18.608;2023-11-22T05:36:40;4.70;99.90
11925;DHT22;6022;48.768;18.608;2023-11-22T05:39:09;2.60;99.90
11925;DHT22;6022;48.768;18.608;2023-11-22T05:41:43;4.60;99.90
11925;DHT22;6022;48.768;18.608;2023-11-22T05:44:30;4.90;99.90
11925;DHT22;6022;48.768;18.608;2023-11-22T05:47:03;4.80;99.90
11925;DHT22;6022;48.768;18.608;2023-11-22T05:49:36;4.70;99.90
11925;DHT22;6022;48.768;18.608;2023-11-22T05:52:15;4.70;99.90
11925;DHT22;6022;48.768;18.608;2023-11-22T05:58:43;4.30;99.90
11925;DHT22;6022;48.768;18.608;2023-11-22T06:01:22;4.60;99.90
11925;DHT22;6022;48.768;18.608;2023-11-22T06:04:13;4.80;99.90
11925;DHT22;6022;48.768;18.608;2023-11-22T06:07:12;4.50;99.90
11925;DHT22;6022;48.768;18.608;2023-11-22T06:09:40;4.30;99.90
11925;DHT22;6022;48.768;18.608;2023-11-22T06:12:11;3.80;99.90
11925;DHT22;6022;48.768;18.608;2023-11-22T06:15:10;5.00;99.90
11925;DHT22;6022;48.768;18.608;2023-11-22T06:31:12;4.10;99.90
11925;DHT22;6022;48.768;18.608;2023-11-22T06:34:16;4.00;99.90
11925;DHT22;6022;48.768;18.608;2023-11-22T06:56:57;5.00;99.90
11925;DHT22;6022;48.768;18.608;2023-11-22T07:04:53;5.10;99.90
11925;DHT22;6022;48.768;18.608;2023-11-22T07:07:32;4.80;99.90
11925;DHT22;6022;48.768;18.608;2023-11-22T07:10:09;5.20;99.90
11925;DHT22;6022;48.768;18.608;2023-11-22T07:12:38;4.50;99.90
11925;DHT22;6022;48.768;18.608;2023-11-22T07:15:19;4.40;99.90
11925;DHT22;6022;48.768;18.608;2023-11-22T07:17:59;4.60;99.90
11925;DHT22;6022;48.768;18.608;2023-11-22T07:30:23;4.90;99.90
11925;DHT22;6022;48.768;18.608;2023-11-22T07:35:47;4.30;99.90
11925;DHT22;6022;48.768;18.608;2023-11-22T07:38:15;4.90;99.90
11925;DHT22;6022;48.768;18.608;2023-11-22T07:40:50;5.10;99.90
11925;DHT22;6022;48.768;18.608;2023-11-22T07:44:05;4.80;99.90
11925;DHT22;6022;48.768;18.608;2023-11-22T07:51:06;4.70;99.90
11925;DHT22;6022;48.768;18.608;2023-11-22T08:05:00;4.90;99.90
11925;DHT22;6022;48.768;18.608;2023-11-22T08:11:19;5.10;99.90
11925;DHT22;6022;48.768;18.608;2023-11-22T08:14:05;5.40;99.90
11925;DHT22;6022;48.768;18.608;2023-11-22T08:16:36;4.80;99.90
11925;DHT22;6022;48.768;18.608;2023-11-22T08:19:12;4.90;99.90
11925;DHT22;6022;48.768;18.608;2023-11-22T08:21:40;4.80;99.90
11925;DHT22;6022;48.768;18.608;2023-11-22T08:24:12;4.90;99.90
11925;DHT22;6022;48.768;18.608;2023-11-22T08:26:59;5.10;99.90
11925;DHT22;6022;48.768;18.608;2023-11-22T08:32:04;5.70;99.90
11925;DHT22;6022;48.768;18.608;2023-11-22T08:39:41;5.70;99.90
11925;DHT22;6022;48.768;18.608;2023-11-22T08:42:09;6.10;99.90
11925;DHT22;6022;48.768;18.608;2023-11-22T08:44:42;6.10;99.90
11925;DHT22;6022;48.768;18.608;2023-11-22T08:47:10;6.80;99.90
11925;DHT22;6022;48.768;18.608;2023-11-22T08:49:39;6.20;99.90
11925;DHT22;6022;48.768;18.608;2023-11-22T08:52:10;8.40;99.90
11925;DHT22;6022;48.768;18.608;2023-11-22T08:57:09;7.70;99.90
11925;DHT22;6022;48.768;18.608;2023-11-22T08:59:39;6.80;99.90
11925;DHT22;6022;48.768;18.608;2023-11-22T09:02:09;7.60;99.90
11925;DHT22;6022;48.768;18.608;2023-11-22T09:04:40;6.50;99.90
11925;DHT22;6022;48.768;18.608;2023-11-22T09:07:11;6.50;99.90
11925;DHT22;6022;48.768;18.608;2023-11-22T09:09:42;5.60;99.90
11925;DHT22;6022;48.768;18.608;2023-11-22T09:12:10;5.50;99.90
11925;DHT22;6022;48.768;18.608;2023-11-22T09:14:46;6.00;99.90
11925;DHT22;6022;48.768;18.608;2023-11-22T09:17:31;5.80;99.90
11925;DHT22;6022;48.768;18.608;2023-11-22T09:20:04;6.60;99.90
11925;DHT22;6022;48.768;18.608;2023-11-22T09:22:51;6.00;99.90
11925;DHT22;6022;48.768;18.608;2023-11-22T09:25:25;5.50;99.90
11925;DHT22;6022;48.768;18.608;2023-11-22T09:27:57;6.50;99.90
11925;DHT22;6022;48.768;18.608;2023-11-22T09:30:30;6.90;99.90
11925;DHT22;6022;48.768;18.608;2023-11-22T09:33:18;6.60;99.90
11925;DHT22;6022;48.768;18.608;2023-11-22T09:35:47;7.70;99.90
11925;DHT22;6022;48.768;18.608;2023-11-22T09:38:36;7.40;99.90
11925;DHT22;6022;48.768;18.608;2023-11-22T09:41:25;6.90;99.90
11925;DHT22;6022;48.768;18.608;2023-11-22T09:44:00;6.70;99.90
11925;DHT22;6022;48.768;18.608;2023-11-22T09:46:43;6.50;99.90
11925;DHT22;6022;48.768;18.608;2023-11-22T09:49:20;6.70;99.90
11925;DHT22;6022;48.768;18.608;2023-11-22T09:52:01;6.90;99.90
11925;DHT22;6022;48.768;18.608;2023-11-22T09:54:45;7.90;99.90
11925;DHT22;6022;48.768;18.608;2023-11-22T09:57:27;7.80;99.90
11925;DHT22;6022;48.768;18.608;2023-11-22T10:00:11;8.00;99.90
11925;DHT22;6022;48.768;18.608;2023-11-22T10:02:50;7.90;99.90
11925;DHT22;6022;48.768;18.608;2023-11-22T10:05:22;8.20;99.90
11925;DHT22;6022;48.768;18.608;2023-11-22T10:07:52;8.80;99.90
11925;DHT22;6022;48.768;18.608;2023-11-22T10:10:22;8.90;99.90
11925;DHT22;6022;48.768;18.608;2023-11-22T10:12:55;8.50;99.90
11925;DHT22;6022;48.768;18.608;2023-11-22T10:15:29;8.50;99.90
11925;DHT22;6022;48.768;18.608;2023-11-22T10:17:58;8.70;99.90
11925;DHT22;6022;48.768;18.608;2023-11-22T10:20:39;8.80;99.90
11925;DHT22;6022;48.768;18.608;2023-11-22T10:23:16;8.80;99.90
11925;DHT22;6022;48.768;18.608;2023-11-22T10:30:03;8.90;99.90
11925;DHT22;6022;48.768;18.608;2023-11-22T10:32:55;7.90;99.90
11925;DHT22;6022;48.768;18.608;2023-11-22T10:35:25;8.20;99.90
11925;DHT22;6022;48.768;18.608;2023-11-22T10:37:53;8.70;99.90
11925;DHT22;6022;48.768;18.608;2023-11-22T10:40:22;8.20;99.90
11925;DHT22;6022;48.768;18.608;2023-11-22T10:42:56;8.40;99.90
11925;DHT22;6022;48.768;18.608;2023-11-22T10:45:29;8.50;99.90
11925;DHT22;6022;48.768;18.608;2023-11-22T10:48:02;8.80;99.90
11925;DHT22;6022;48.768;18.608;2023-11-22T10:50:32;8.50;99.90
11925;DHT22;6022;48.768;18.608;2023-11-22T10:53:07;8.90;99.90
11925;DHT22;6022;48.768;18.608;2023-11-22T10:55:38;8.60;99.90
11925;DHT22;6022;48.768;18.608;2023-11-22T10:58:14;9.00;99.90
11925;DHT22;6022;48.768;18.608;2023-11-22T11:00:46;8.70;99.90
11925;DHT22;6022;48.768;18.608;2023-11-22T11:03:18;9.30;99.90
11925;DHT22;6022;48.768;18.608;2023-11-22T11:08:48;8.60;99.90
11925;DHT22;6022;48.768;18.608;2023-11-22T11:11:20;8.70;99.90
11925;DHT22;6022;48.768;18.608;2023-11-22T11:13:51;9.10;99.90
11925;DHT22;6022;48.768;18.608;2023-11-22T11:16:38;9.70;99.90
11925;DHT22;6022;48.768;18.608;2023-11-22T11:19:18;10.30;99.90
11925;DHT22;6022;48.768;18.608;2023-11-22T11:21:48;9.70;99.90
11925;DHT22;6022;48.768;18.608;2023-11-22T11:24:17;9.40;99.90
11925;DHT22;6022;48.768;18.608;2023-11-22T11:26:51;10.00;99.90
11925;DHT22;6022;48.768;18.608;2023-11-22T11:29:32;8.90;99.90
11925;DHT22;6022;48.768;18.608;2023-11-22T11:32:11;9.10;99.90
11925;DHT22;6022;48.768;18.608;2023-11-22T11:35:09;8.80;99.90
11925;DHT22;6022;48.768;18.608;2023-11-22T11:38:01;9.40;99.90
11925;DHT22;6022;48.768;18.608;2023-11-22T11:40:53;9.00;99.90
11925;DHT22;6022;48.768;18.608;2023-11-22T11:43:43;9.00;99.90
11925;DHT22;6022;48.768;18.608;2023-11-22T11:46:19;8.90;99.90
11925;DHT22;6022;48.768;18.608;2023-11-22T11:48:54;9.00;99.90
11925;DHT22;6022;48.768;18.608;2023-11-22T11:51:28;8.50;99.90
11925;DHT22;6022;48.768;18.608;2023-11-22T11:54:15;8.90;99.90
11925;DHT22;6022;48.768;18.608;2023-11-22T11:56:45;8.20;99.90
11925;DHT22;6022;48.768;18.608;2023-11-22T11:59:25;9.80;99.90
11925;DHT22;6022;48.768;18.608;2023-11-22T12:01:59;9.20;99.90
11925;DHT22;6022;48.768;18.608;2023-11-22T12:04:38;9.00;99.90
11925;DHT22;6022;48.768;18.608;2023-11-22T12:07:54;8.60;99.90
11925;DHT22;6022;48.768;18.608;2023-11-22T12:11:45;9.00;99.90
11925;DHT22;6022;48.768;18.608;2023-11-22T12:14:52;9.10;99.90
11925;DHT22;6022;48.768;18.608;2023-11-22T12:18:13;8.90;99.90
11925;DHT22;6022;48.768;18.608;2023-11-22T12:20:57;8.10;99.90
11925;DHT22;6022;48.768;18.608;2023-11-22T12:23:29;8.10;99.90
11925;DHT22;6022;48.768;18.608;2023-11-22T12:26:02;7.80;99.90
11925;DHT22;6022;48.768;18.608;2023-11-22T12:31:36;8.00;99.90
11925;DHT22;6022;48.768;18.608;2023-11-22T12:34:34;7.80;99.90
11925;DHT22;6022;48.768;18.608;2023-11-22T12:37:05;8.00;99.90
11925;DHT22;6022;48.768;18.608;2023-11-22T12:39:36;7.70;99.90
11925;DHT22;6022;48.768;18.608;2023-11-22T12:42:04;8.30;99.90
11925;DHT22;6022;48.768;18.608;2023-11-22T12:44:56;7.90;99.90
11925;DHT22;6022;48.768;18.608;2023-11-22T12:47:39;7.80;99.90
11925;DHT22;6022;48.768;18.608;2023-11-22T12:51:22;8.20;99.90
11925;DHT22;6022;48.768;18.608;2023-11-22T12:58:14;8.40;99.90
11925;DHT22;6022;48.768;18.608;2023-11-22T13:04:21;8.40;99.90
11925;DHT22;6022;48.768;18.608;2023-11-22T13:18:45;8.00;99.90
11925;DHT22;6022;48.768;18.608;2023-11-22T13:25:58;7.40;99.90
11925;DHT22;6022;48.768;18.608;2023-11-22T13:28:38;7.80;99.90
11925;DHT22;6022;48.768;18.608;2023-11-22T13:31:16;6.50;99.90
11925;DHT22;6022;48.768;18.608;2023-11-22T13:34:13;7.10;99.90
11925;DHT22;6022;48.768;18.608;2023-11-22T13:36:54;7.00;99.90
11925;DHT22;6022;48.768;18.608;2023-11-22T13:39:28;6.80;99.90
11925;DHT22;6022;48.768;18.608;2023-11-22T13:42:44;7.40;99.90
11925;DHT22;6022;48.768;18.608;2023-11-22T13:45:35;7.30;99.90
11925;DHT22;6022;48.768;18.608;2023-11-22T13:49:16;7.20;99.90
11925;DHT22;6022;48.768;18.608;2023-11-22T13:52:10;7.00;99.90
11925;DHT22;6022;48.768;18.608;2023-11-22T13:54:47;7.20;99.90
11925;DHT22;6022;48.768;18.608;2023-11-22T13:57:37;6.90;99.90
11925;DHT22;6022;48.768;18.608;2023-11-22T14:00:22;6.90;99.90
11925;DHT22;6022;48.768;18.608;2023-11-22T14:06:59;6.40;99.90
11925;DHT22;6022;48.768;18.608;2023-11-22T14:09:59;6.30;99.90
11925;DHT22;6022;48.768;18.608;2023-11-22T14:22:45;6.00;99.90
11925;DHT22;6022;48.768;18.608;2023-11-22T14:25:16;5.70;99.90
11925;DHT22;6022;48.768;18.608;2023-11-22T14:28:15;5.80;99.90
11925;DHT22;6022;48.768;18.608;2023-11-22T14:35:18;5.50;99.90
11925;DHT22;6022;48.768;18.608;2023-11-22T14:38:49;6.00;99.90
11925;DHT22;6022;48.768;18.608;2023-11-22T14:41:22;5.50;99.90
11925;DHT22;6022;48.768;18.608;2023-11-22T14:43:55;5.40;99.90
11925;DHT22;6022;48.768;18.608;2023-11-22T14:51:43;5.00;99.90
11925;DHT22;6022;48.768;18.608;2023-11-22T14:54:21;4.90;99.90
11925;DHT22;6022;48.768;18.608;2023-11-22T14:59:40;2.30;99.90
11925;DHT22;6022;48.768;18.608;2023-11-22T15:02:17;4.80;99.90
11925;DHT22;6022;48.768;18.608;2023-11-22T15:05:13;4.40;99.90
11925;DHT22;6022;48.768;18.608;2023-11-22T15:07:50;4.40;99.90
11925;DHT22;6022;48.768;18.608;2023-11-22T15:10:28;4.60;99.90
11925;DHT22;6022;48.768;18.608;2023-11-22T15:13:29;4.90;99.90
11925;DHT22;6022;48.768;18.608;2023-11-22T15:16:00;4.40;99.90
11925;DHT22;6022;48.768;18.608;2023-11-22T15:24:25;4.20;99.90
11925;DHT22;6022;48.768;18.608;2023-11-22T15:27:05;4.10;99.90
11925;DHT22;6022;48.768;18.608;2023-11-22T15:32:36;3.00;99.90
11925;DHT22;6022;48.768;18.608;2023-11-22T15:35:09;4.10;99.90
11925;DHT22;6022;48.768;18.608;2023-11-22T16:28:13;4.00;99.90
11925;DHT22;6022;48.768;18.608;2023-11-22T16:30:48;3.60;99.90
11925;DHT22;6022;48.768;18.608;2023-11-22T16:36:08;3.00;99.90
11925;DHT22;6022;48.768;18.608;2023-11-22T16:38:47;3.20;99.90
11925;DHT22;6022;48.768;18.608;2023-11-22T16:41:21;2.80;99.90
11925;DHT22;6022;48.768;18.608;2023-11-22T16:44:13;3.30;99.90
11925;DHT22;6022;48.768;18.608;2023-11-22T16:46:53;2.80;99.90
11925;DHT22;6022;48.768;18.608;2023-11-22T16:49:22;3.80;99.90
11925;DHT22;6022;48.768;18.608;2023-11-22T16:51:53;2.90;99.90
11925;DHT22;6022;48.768;18.608;2023-11-22T16:54:37;3.10;99.90
11925;DHT22;6022;48.768;18.608;2023-11-22T16:57:10;3.00;99.90
11925;DHT22;6022;48.768;18.608;2023-11-22T16:59:56;2.80;99.90
11925;DHT22;6022;48.768;18.608;2023-11-22T17:09:53;2.70;99.90
11925;DHT22;6022;48.768;18.608;2023-11-22T17:12:23;2.90;99.90
11925;DHT22;6022;48.768;18.608;2023-11-22T17:14:57;2.80;99.90
11925;DHT22;6022;48.768;18.608;2023-11-22T17:19:56;2.50;99.90
11925;DHT22;6022;48.768;18.608;2023-11-22T17:24:57;2.50;99.90
11925;DHT22;6022;48.768;18.608;2023-11-22T17:27:30;2.40;99.90
11925;DHT22;6022;48.768;18.608;2023-11-22T17:30:45;1.80;99.90
11925;DHT22;6022;48.768;18.608;2023-11-22T17:33:15;2.70;99.90
11925;DHT22;6022;48.768;18.608;2023-11-22T17:35:46;2.40;99.90
11925;DHT22;6022;48.768;18.608;2023-11-22T17:40:57;2.50;99.90
11925;DHT22;6022;48.768;18.608;2023-11-22T17:43:45;2.40;99.90
11925;DHT22;6022;48.768;18.608;2023-11-22T17:51:31;2.30;99.90
11925;DHT22;6022;48.768;18.608;2023-11-22T18:06:30;2.10;99.90
11925;DHT22;6022;48.768;18.608;2023-11-22T18:14:12;2.40;99.90
11925;DHT22;6022;48.768;18.608;2023-11-22T18:16:42;2.20;99.90
11925;DHT22;6022;48.768;18.608;2023-11-22T18:19:17;2.00;99.90
11925;DHT22;6022;48.768;18.608;2023-11-22T18:21:46;2.00;99.90
11925;DHT22;6022;48.768;18.608;2023-11-22T18:29:48;2.20;99.90
11925;DHT22;6022;48.768;18.608;2023-11-22T18:32:19;1.80;99.90
11925;DHT22;6022;48.768;18.608;2023-11-22T18:37:26;1.90;99.90
11925;DHT22;6022;48.768;18.608;2023-11-22T18:39:55;1.80;99.90
11925;DHT22;6022;48.768;18.608;2023-11-22T18:42:29;1.50;99.90
11925;DHT22;6022;48.768;18.608;2023-11-22T18:47:26;2.10;99.90
11925;DHT22;6022;48.768;18.608;2023-11-22T18:49:55;1.80;99.90
11925;DHT22;6022;48.768;18.608;2023-11-22T18:52:24;1.60;99.90
11925;DHT22;6022;48.768;18.608;2023-11-22T18:54:58;1.70;99.90
11925;DHT22;6022;48.768;18.608;2023-11-22T18:57:26;1.70;99.90
11925;DHT22;6022;48.768;18.608;2023-11-22T19:00:25;1.70;99.90
11925;DHT22;6022;48.768;18.608;2023-11-22T19:39:31;1.70;99.90
11925;DHT22;6022;48.768;18.608;2023-11-22T19:42:03;1.50;99.90
11925;DHT22;6022;48.768;18.608;2023-11-22T19:44:32;3.30;99.90
11925;DHT22;6022;48.768;18.608;2023-11-22T19:47:18;1.50;99.90
11925;DHT22;6022;48.768;18.608;2023-11-22T19:49:47;1.80;99.90
11925;DHT22;6022;48.768;18.608;2023-11-22T19:52:23;1.40;99.90
11925;DHT22;6022;48.768;18.608;2023-11-22T19:54:57;1.30;99.90
11925;DHT22;6022;48.768;18.608;2023-11-22T19:57:35;1.30;99.90
11925;DHT22;6022;48.768;18.608;2023-11-22T20:00:14;1.30;99.90
11925;DHT22;6022;48.768;18.608;2023-11-22T20:02:47;1.40;99.90
11925;DHT22;6022;48.768;18.608;2023-11-22T20:07:50;1.30;99.90
11925;DHT22;6022;48.768;18.608;2023-11-22T20:13:10;1.40;99.90
11925;DHT22;6022;48.768;18.608;2023-11-22T20:15:47;1.20;99.90
11925;DHT22;6022;48.768;18.608;2023-11-22T20:20:47;0.50;99.90
11925;DHT22;6022;48.768;18.608;2023-11-22T20:28:35;1.30;99.90
11925;DHT22;6022;48.768;18.608;2023-11-22T20:31:10;1.00;99.90
11925;DHT22;6022;48.768;18.608;2023-11-22T20:33:39;1.10;99.90
11925;DHT22;6022;48.768;18.608;2023-11-22T20:36:16;1.10;99.90
11925;DHT22;6022;48.768;18.608;2023-11-22T20:41:20;0.80;99.90
11925;DHT22;6022;48.768;18.608;2023-11-22T20:43:49;1.10;99.90
11925;DHT22;6022;48.768;18.608;2023-11-22T20:48:50;0.90;99.90
11925;DHT22;6022;48.768;18.608;2023-11-22T20:51:18;0.70;99.90
11925;DHT22;6022;48.768;18.608;2023-11-22T20:53:52;0.90;99.90
11925;DHT22;6022;48.768;18.608;2023-11-22T20:56:21;0.80;99.90
11925;DHT22;6022;48.768;18.608;2023-11-22T20:58:51;0.80;99.90
11925;DHT22;6022;48.768;18.608;2023-11-22T21:03:53;0.70;99.90
11925;DHT22;6022;48.768;18.608;2023-11-22T21:06:24;1.10;99.90
11925;DHT22;6022;48.768;18.608;2023-11-22T21:08:54;0.70;99.90
11925;DHT22;6022;48.768;18.608;2023-11-22T21:11:24;0.60;99.90
11925;DHT22;6022;48.768;18.608;2023-11-22T21:16:24;1.00;99.90
11925;DHT22;6022;48.768;18.608;2023-11-22T21:23:54;0.80;99.90
11925;DHT22;6022;48.768;18.608;2023-11-22T21:26:24;0.40;99.90
11925;DHT22;6022;48.768;18.608;2023-11-22T21:36:34;1.20;99.90
11925;DHT22;6022;48.768;18.608;2023-11-22T21:39:12;0.60;99.90
11925;DHT22;6022;48.768;18.608;2023-11-22T21:41:47;0.50;99.90
11925;DHT22;6022;48.768;18.608;2023-11-22T21:44:26;0.70;99.90
11925;DHT22;6022;48.768;18.608;2023-11-22T21:49:40;0.80;99.90
11925;DHT22;6022;48.768;18.608;2023-11-22T21:52:12;0.80;99.90
11925;DHT22;6022;48.768;18.608;2023-11-22T21:54:44;0.70;99.90
11925;DHT22;6022;48.768;18.608;2023-11-22T21:57:15;0.60;99.90
11925;DHT22;6022;48.768;18.608;2023-11-22T21:59:52;0.90;99.90
11925;DHT22;6022;48.768;18.608;2023-11-22T22:02:35;0.60;99.90
11925;DHT22;6022;48.768;18.608;2023-11-22T22:05:07;0.70;99.90
11925;DHT22;6022;48.768;18.608;2023-11-22T22:10:11;0.60;99.90
11925;DHT22;6022;48.768;18.608;2023-11-22T22:15:08;1.20;99.90
11925;DHT22;6022;48.768;18.608;2023-11-22T22:20:11;0.50;99.90
11925;DHT22;6022;48.768;18.608;2023-11-22T22:25:12;0.90;99.90
11925;DHT22;6022;48.768;18.608;2023-11-22T22:27:40;0.40;99.90
11925;DHT22;6022;48.768;18.608;2023-11-22T22:32:53;0.40;99.90
11925;DHT22;6022;48.768;18.608;2023-11-22T22:35:31;0.50;99.90
11925;DHT22;6022;48.768;18.608;2023-11-22T22:38:09;0.50;99.90
11925;DHT22;6022;48.768;18.608;2023-11-22T22:40:37;1.20;99.90
11925;DHT22;6022;48.768;18.608;2023-11-22T22:45:39;0.20;99.90
11925;DHT22;6022;48.768;18.608;2023-11-22T22:48:23;0.30;99.90
11925;DHT22;6022;48.768;18.608;2023-11-22T22:50:55;0.40;99.90